sensor_id;sensor_type;location;lat;lon;timestamp;pressure;altitude;pressure_sealevel;temperature;humidity
68179;BME280;54998;42.656;23.382;2022-07-06T00:00:58;94825.03;;;17.66;85.30
68179;BME280;54998;42.656;23.382;2022-07-06T00:03:23;94822.81;;;17.63;85.94
68179;BME280;54998;42.656;23.382;2022-07-06T00:05:49;94826.56;;;17.60;86.50
68179;BME280;54998;42.656;23.382;2022-07-06T00:08:14;94824.25;;;17.65;86.20
68179;BME280;54998;42.656;23.382;2022-07-06T00:10:39;94825.13;;;17.73;86.20
68179;BME280;54998;42.656;23.382;2022-07-06T00:13:05;94831.16;;;17.80;86.14
68179;BME280;54998;42.656;23.382;2022-07-06T00:15:30;94837.44;;;17.85;85.32
68179;BME280;54998;42.656;23.382;2022-07-06T00:17:56;94837.34;;;17.94;85.38
68179;BME280;54998;42.656;23.382;2022-07-06T00:20:21;94834.84;;;17.85;85.92
68179;BME280;54998;42.656;23.382;2022-07-06T00:22:47;94843.16;;;17.81;86.98
68179;BME280;54998;42.656;23.382;2022-07-06T00:25:12;94844.97;;;17.80;88.04
68179;BME280;54998;42.656;23.382;2022-07-06T00:27:38;94849.38;;;17.65;88.44
68179;BME280;54998;42.656;23.382;2022-07-06T00:30:04;94854.09;;;17.55;89.26
68179;BME280;54998;42.656;23.382;2022-07-06T00:32:29;94856.66;;;17.55;90.07
68179;BME280;54998;42.656;23.382;2022-07-06T00:34:55;94860.88;;;17.56;90.46
68179;BME280;54998;42.656;23.382;2022-07-06T00:37:20;94866.06;;;17.56;90.52
68179;BME280;54998;42.656;23.382;2022-07-06T01:08:12;94833.66;;;17.52;89.67
68179;BME280;54998;42.656;23.382;2022-07-06T01:10:38;94820.06;;;17.50;89.73
68179;BME280;54998;42.656;23.382;2022-07-06T01:13:04;94820.47;;;17.47;90.06
68179;BME280;54998;42.656;23.382;2022-07-06T01:15:29;94819.09;;;17.51;90.24
68179;BME280;54998;42.656;23.382;2022-07-06T01:17:55;94825.53;;;17.55;90.49
68179;BME280;54998;42.656;23.382;2022-07-06T01:20:22;94824.44;;;17.64;90.61
68179;BME280;54998;42.656;23.382;2022-07-06T01:22:50;94829.13;;;17.75;90.62
68179;BME280;54998;42.656;23.382;2022-07-06T01:25:16;94818.75;;;17.75;90.52
68179;BME280;54998;42.656;23.382;2022-07-06T01:27:42;94819.38;;;17.77;90.29
68179;BME280;54998;42.656;23.382;2022-07-06T01:30:13;94827.41;;;17.82;90.40
68179;BME280;54998;42.656;23.382;2022-07-06T01:32:39;94827.53;;;17.74;90.30
68179;BME280;54998;42.656;23.382;2022-07-06T01:35:07;94822.34;;;17.74;90.44
68179;BME280;54998;42.656;23.382;2022-07-06T01:37:33;94811.00;;;17.60;90.46
68179;BME280;54998;42.656;23.382;2022-07-06T01:40:03;94817.44;;;17.64;90.54
68179;BME280;54998;42.656;23.382;2022-07-06T01:42:29;94818.38;;;17.57;90.88
68179;BME280;54998;42.656;23.382;2022-07-06T01:44:54;94829.84;;;17.69;90.60
68179;BME280;54998;42.656;23.382;2022-07-06T01:47:20;94821.16;;;17.77;90.88
68179;BME280;54998;42.656;23.382;2022-07-06T01:49:46;94821.25;;;17.83;91.35
68179;BME280;54998;42.656;23.382;2022-07-06T01:52:11;94820.69;;;17.88;91.33
68179;BME280;54998;42.656;23.382;2022-07-06T01:54:37;94825.25;;;17.86;91.23
68179;BME280;54998;42.656;23.382;2022-07-06T01:57:02;94824.66;;;17.84;90.45
68179;BME280;54998;42.656;23.382;2022-07-06T01:59:28;94832.00;;;17.80;90.58
68179;BME280;54998;42.656;23.382;2022-07-06T02:01:53;94838.78;;;17.81;90.54
68179;BME280;54998;42.656;23.382;2022-07-06T02:04:19;94843.63;;;17.84;90.64
68179;BME280;54998;42.656;23.382;2022-07-06T02:06:44;94842.03;;;17.83;90.45
68179;BME280;54998;42.656;23.382;2022-07-06T02:09:10;94845.94;;;17.79;90.48
68179;BME280;54998;42.656;23.382;2022-07-06T02:11:35;94844.06;;;17.73;89.22
68179;BME280;54998;42.656;23.382;2022-07-06T02:14:01;94844.19;;;17.65;89.12
68179;BME280;54998;42.656;23.382;2022-07-06T02:16:26;94841.72;;;17.57;88.16
68179;BME280;54998;42.656;23.382;2022-07-06T02:18:51;94848.75;;;17.41;88.32
68179;BME280;54998;42.656;23.382;2022-07-06T02:21:17;94845.88;;;17.36;88.54
68179;BME280;54998;42.656;23.382;2022-07-06T02:23:42;94843.22;;;17.30;88.88
68179;BME280;54998;42.656;23.382;2022-07-06T02:26:08;94850.38;;;17.28;89.22
68179;BME280;54998;42.656;23.382;2022-07-06T02:28:33;94847.78;;;17.28;89.51
68179;BME280;54998;42.656;23.382;2022-07-06T02:30:59;94850.84;;;17.16;89.80
68179;BME280;54998;42.656;23.382;2022-07-06T02:33:24;94848.41;;;17.15;89.96
68179;BME280;54998;42.656;23.382;2022-07-06T02:35:50;94838.59;;;17.10;90.13
68179;BME280;54998;42.656;23.382;2022-07-06T02:38:15;94840.72;;;17.07;90.22
68179;BME280;54998;42.656;23.382;2022-07-06T02:40:41;94836.91;;;17.02;90.59
68179;BME280;54998;42.656;23.382;2022-07-06T02:43:06;94842.72;;;17.04;90.28
68179;BME280;54998;42.656;23.382;2022-07-06T02:45:32;94844.84;;;17.01;90.42
68179;BME280;54998;42.656;23.382;2022-07-06T02:47:58;94838.50;;;16.89;90.66
68179;BME280;54998;42.656;23.382;2022-07-06T02:50:24;94838.69;;;16.87;90.43
68179;BME280;54998;42.656;23.382;2022-07-06T02:52:50;94853.25;;;16.88;90.67
68179;BME280;54998;42.656;23.382;2022-07-06T02:55:16;94848.00;;;16.81;90.60
68179;BME280;54998;42.656;23.382;2022-07-06T02:57:42;94848.00;;;16.81;90.67
68179;BME280;54998;42.656;23.382;2022-07-06T03:00:08;94839.41;;;16.81;90.73
68179;BME280;54998;42.656;23.382;2022-07-06T03:02:34;94846.44;;;16.87;90.70
68179;BME280;54998;42.656;23.382;2022-07-06T03:05:00;94839.94;;;16.91;90.28
68179;BME280;54998;42.656;23.382;2022-07-06T03:07:25;94835.38;;;16.93;90.17
68179;BME280;54998;42.656;23.382;2022-07-06T03:09:51;94837.78;;;16.95;90.15
68179;BME280;54998;42.656;23.382;2022-07-06T03:12:16;94842.59;;;16.98;89.64
68179;BME280;54998;42.656;23.382;2022-07-06T03:14:42;94844.22;;;16.99;89.59
68179;BME280;54998;42.656;23.382;2022-07-06T03:17:08;94835.03;;;16.96;89.35
68179;BME280;54998;42.656;23.382;2022-07-06T03:19:33;94843.59;;;16.97;89.33
68179;BME280;54998;42.656;23.382;2022-07-06T03:21:59;94841.63;;;16.99;89.55
68179;BME280;54998;42.656;23.382;2022-07-06T03:24:24;94855.78;;;16.96;89.68
68179;BME280;54998;42.656;23.382;2022-07-06T03:26:51;94859.41;;;16.87;89.94
68179;BME280;54998;42.656;23.382;2022-07-06T03:29:17;94863.34;;;16.98;90.50
68179;BME280;54998;42.656;23.382;2022-07-06T03:31:42;94851.22;;;16.98;90.75
68179;BME280;54998;42.656;23.382;2022-07-06T03:34:08;94865.22;;;17.04;90.29
68179;BME280;54998;42.656;23.382;2022-07-06T03:36:33;94865.06;;;17.06;90.50
68179;BME280;54998;42.656;23.382;2022-07-06T03:38:59;94876.75;;;17.01;90.17
68179;BME280;54998;42.656;23.382;2022-07-06T03:41:24;94872.56;;;17.00;90.47
68179;BME280;54998;42.656;23.382;2022-07-06T03:43:49;94874.81;;;17.03;90.71
68179;BME280;54998;42.656;23.382;2022-07-06T03:46:15;94872.28;;;17.10;90.35
68179;BME280;54998;42.656;23.382;2022-07-06T03:48:40;94876.31;;;17.13;90.35
68179;BME280;54998;42.656;23.382;2022-07-06T03:51:06;94877.84;;;17.07;90.62
68179;BME280;54998;42.656;23.382;2022-07-06T03:53:32;94875.44;;;17.06;90.46
68179;BME280;54998;42.656;23.382;2022-07-06T03:55:57;94877.56;;;17.02;90.55
68179;BME280;54998;42.656;23.382;2022-07-06T03:58:42;94867.28;;;17.09;90.46
68179;BME280;54998;42.656;23.382;2022-07-06T04:01:07;94880.22;;;17.23;90.81
68179;BME280;54998;42.656;23.382;2022-07-06T04:08:43;94876.44;;;17.41;90.88
68179;BME280;54998;42.656;23.382;2022-07-06T04:11:09;94880.03;;;17.55;90.59
68179;BME280;54998;42.656;23.382;2022-07-06T04:13:34;94878.47;;;17.60;90.64
68179;BME280;54998;42.656;23.382;2022-07-06T04:16:00;94879.78;;;17.71;90.30
68179;BME280;54998;42.656;23.382;2022-07-06T04:18:25;94877.56;;;17.83;89.74
68179;BME280;54998;42.656;23.382;2022-07-06T04:20:51;94877.25;;;17.93;88.86
68179;BME280;54998;42.656;23.382;2022-07-06T04:23:16;94875.66;;;17.92;87.52
68179;BME280;54998;42.656;23.382;2022-07-06T04:25:41;94874.47;;;17.94;84.87
68179;BME280;54998;42.656;23.382;2022-07-06T04:28:07;94876.06;;;17.95;82.59
68179;BME280;54998;42.656;23.382;2022-07-06T04:30:33;94881.09;;;17.97;81.97
68179;BME280;54998;42.656;23.382;2022-07-06T04:32:58;94879.50;;;17.96;81.72
68179;BME280;54998;42.656;23.382;2022-07-06T04:35:24;94881.22;;;18.10;80.96
68179;BME280;54998;42.656;23.382;2022-07-06T04:37:49;94887.03;;;18.12;79.86
68179;BME280;54998;42.656;23.382;2022-07-06T04:40:14;94887.69;;;18.21;80.21
68179;BME280;54998;42.656;23.382;2022-07-06T04:42:40;94897.84;;;18.37;78.68
68179;BME280;54998;42.656;23.382;2022-07-06T04:45:06;94893.25;;;18.39;77.69
68179;BME280;54998;42.656;23.382;2022-07-06T04:47:32;94894.50;;;18.43;78.19
68179;BME280;54998;42.656;23.382;2022-07-06T04:49:57;94896.44;;;18.35;77.75
68179;BME280;54998;42.656;23.382;2022-07-06T04:52:23;94898.16;;;18.27;77.88
68179;BME280;54998;42.656;23.382;2022-07-06T04:54:48;94911.56;;;18.31;78.11
68179;BME280;54998;42.656;23.382;2022-07-06T04:57:14;94897.81;;;18.59;76.44
68179;BME280;54998;42.656;23.382;2022-07-06T04:59:39;94913.00;;;18.34;76.85
68179;BME280;54998;42.656;23.382;2022-07-06T05:09:50;94905.22;;;18.62;75.48
68179;BME280;54998;42.656;23.382;2022-07-06T05:12:15;94911.31;;;18.76;74.77
68179;BME280;54998;42.656;23.382;2022-07-06T05:14:41;94922.56;;;19.04;74.21
68179;BME280;54998;42.656;23.382;2022-07-06T05:17:06;94918.16;;;19.95;69.94
68179;BME280;54998;42.656;23.382;2022-07-06T05:19:32;94929.13;;;19.70;69.69
68179;BME280;54998;42.656;23.382;2022-07-06T05:21:57;94922.75;;;19.03;72.17
68179;BME280;54998;42.656;23.382;2022-07-06T05:24:22;94930.50;;;18.96;73.26
68179;BME280;54998;42.656;23.382;2022-07-06T05:26:48;94940.00;;;19.45;70.96
68179;BME280;54998;42.656;23.382;2022-07-06T05:29:13;94928.00;;;19.99;69.60
68179;BME280;54998;42.656;23.382;2022-07-06T05:31:39;94936.34;;;20.89;66.02
68179;BME280;54998;42.656;23.382;2022-07-06T05:34:04;94944.38;;;20.61;66.75
68179;BME280;54998;42.656;23.382;2022-07-06T05:36:30;94937.13;;;20.83;65.50
68179;BME280;54998;42.656;23.382;2022-07-06T05:38:55;94943.22;;;23.03;59.10
68179;BME280;54998;42.656;23.382;2022-07-06T05:41:21;94934.88;;;24.77;53.79
68179;BME280;54998;42.656;23.382;2022-07-06T05:43:46;94938.38;;;23.06;56.83
68179;BME280;54998;42.656;23.382;2022-07-06T05:46:11;94945.31;;;24.23;54.15
68179;BME280;54998;42.656;23.382;2022-07-06T05:48:37;94935.19;;;24.80;52.73
68179;BME280;54998;42.656;23.382;2022-07-06T05:51:21;94945.38;;;25.12;50.01
68179;BME280;54998;42.656;23.382;2022-07-06T05:53:46;94949.53;;;24.54;52.04
68179;BME280;54998;42.656;23.382;2022-07-06T05:56:13;94955.16;;;23.42;54.83
68179;BME280;54998;42.656;23.382;2022-07-06T05:58:38;94968.09;;;22.87;56.65
68179;BME280;54998;42.656;23.382;2022-07-06T06:01:04;94949.94;;;22.35;59.07
68179;BME280;54998;42.656;23.382;2022-07-06T06:03:32;94953.84;;;21.74;60.30
68179;BME280;54998;42.656;23.382;2022-07-06T06:05:57;94945.31;;;21.27;61.61
68179;BME280;54998;42.656;23.382;2022-07-06T06:08:22;94952.75;;;21.23;61.40
68179;BME280;54998;42.656;23.382;2022-07-06T06:10:48;94954.59;;;21.03;62.75
68179;BME280;54998;42.656;23.382;2022-07-06T06:13:13;94953.19;;;20.67;64.54
68179;BME280;54998;42.656;23.382;2022-07-06T06:15:39;94963.97;;;21.30;62.46
68179;BME280;54998;42.656;23.382;2022-07-06T06:18:04;94955.41;;;21.88;60.46
68179;BME280;54998;42.656;23.382;2022-07-06T06:20:30;94956.34;;;21.36;62.44
68179;BME280;54998;42.656;23.382;2022-07-06T06:22:57;94959.19;;;21.14;62.73
68179;BME280;54998;42.656;23.382;2022-07-06T06:27:54;94961.78;;;21.34;62.63
68179;BME280;54998;42.656;23.382;2022-07-06T06:30:20;94956.53;;;21.27;62.55
68179;BME280;54998;42.656;23.382;2022-07-06T06:32:45;94955.38;;;21.23;62.44
68179;BME280;54998;42.656;23.382;2022-07-06T06:35:11;94956.38;;;20.62;63.59
68179;BME280;54998;42.656;23.382;2022-07-06T06:37:37;94953.41;;;20.65;63.51
68179;BME280;54998;42.656;23.382;2022-07-06T06:40:04;94951.13;;;20.56;64.83
68179;BME280;54998;42.656;23.382;2022-07-06T06:42:30;94950.78;;;20.85;63.37
68179;BME280;54998;42.656;23.382;2022-07-06T06:44:55;94950.97;;;20.84;62.89
68179;BME280;54998;42.656;23.382;2022-07-06T06:47:21;94942.72;;;21.20;62.15
68179;BME280;54998;42.656;23.382;2022-07-06T06:49:46;94939.56;;;20.91;63.44
68179;BME280;54998;42.656;23.382;2022-07-06T06:52:13;94950.50;;;21.40;62.01
68179;BME280;54998;42.656;23.382;2022-07-06T06:54:38;94941.88;;;21.33;62.42
68179;BME280;54998;42.656;23.382;2022-07-06T06:57:04;94945.50;;;21.39;61.45
68179;BME280;54998;42.656;23.382;2022-07-06T06:59:29;94955.47;;;21.68;61.05
68179;BME280;54998;42.656;23.382;2022-07-06T07:01:55;94945.75;;;23.34;56.09
68179;BME280;54998;42.656;23.382;2022-07-06T07:04:20;94942.00;;;25.76;49.85
68179;BME280;54998;42.656;23.382;2022-07-06T07:06:46;94949.44;;;25.79;49.61
68179;BME280;54998;42.656;23.382;2022-07-06T07:09:11;94937.91;;;27.78;45.10
68179;BME280;54998;42.656;23.382;2022-07-06T07:11:37;94938.53;;;26.28;46.04
68179;BME280;54998;42.656;23.382;2022-07-06T07:14:02;94935.56;;;26.53;46.39
68179;BME280;54998;42.656;23.382;2022-07-06T07:16:28;94948.13;;;27.13;44.47
68179;BME280;54998;42.656;23.382;2022-07-06T07:18:53;94941.97;;;25.12;50.08
68179;BME280;54998;42.656;23.382;2022-07-06T07:21:19;94942.41;;;23.64;53.21
68179;BME280;54998;42.656;23.382;2022-07-06T07:23:44;94939.69;;;23.15;54.91
68179;BME280;54998;42.656;23.382;2022-07-06T07:26:10;94939.84;;;23.39;53.70
68179;BME280;54998;42.656;23.382;2022-07-06T07:28:36;94937.75;;;23.66;53.25
68179;BME280;54998;42.656;23.382;2022-07-06T07:31:01;94943.03;;;22.97;55.27
68179;BME280;54998;42.656;23.382;2022-07-06T07:33:27;94937.38;;;23.44;54.10
68179;BME280;54998;42.656;23.382;2022-07-06T07:35:52;94940.84;;;23.01;54.99
68179;BME280;54998;42.656;23.382;2022-07-06T07:38:18;94941.31;;;22.66;56.05
68179;BME280;54998;42.656;23.382;2022-07-06T07:40:43;94932.84;;;22.89;56.22
68179;BME280;54998;42.656;23.382;2022-07-06T07:43:09;94938.53;;;23.48;54.00
68179;BME280;54998;42.656;23.382;2022-07-06T07:45:34;94934.81;;;23.19;54.85
68179;BME280;54998;42.656;23.382;2022-07-06T07:48:00;94941.97;;;22.80;55.46
68179;BME280;54998;42.656;23.382;2022-07-06T07:50:25;94934.94;;;22.55;57.29
68179;BME280;54998;42.656;23.382;2022-07-06T07:52:52;94929.88;;;23.48;54.99
68179;BME280;54998;42.656;23.382;2022-07-06T07:55:18;94932.09;;;26.98;46.39
68179;BME280;54998;42.656;23.382;2022-07-06T07:57:43;94925.84;;;27.04;44.60
68179;BME280;54998;42.656;23.382;2022-07-06T08:00:09;94928.94;;;27.35;44.84
68179;BME280;54998;42.656;23.382;2022-07-06T08:02:35;94931.84;;;28.81;40.70
68179;BME280;54998;42.656;23.382;2022-07-06T08:05:02;94937.28;;;27.71;42.59
68179;BME280;54998;42.656;23.382;2022-07-06T08:07:27;94927.81;;;26.00;46.81
68179;BME280;54998;42.656;23.382;2022-07-06T08:09:53;94929.22;;;26.37;45.75
68179;BME280;54998;42.656;23.382;2022-07-06T08:12:18;94912.88;;;29.74;39.34
68179;BME280;54998;42.656;23.382;2022-07-06T08:14:43;94922.78;;;31.53;35.20
68179;BME280;54998;42.656;23.382;2022-07-06T08:17:09;94919.69;;;33.67;31.53
68179;BME280;54998;42.656;23.382;2022-07-06T08:19:34;94921.69;;;29.42;38.29
68179;BME280;54998;42.656;23.382;2022-07-06T08:22:00;94917.28;;;29.68;38.83
68179;BME280;54998;42.656;23.382;2022-07-06T08:24:25;94923.69;;;27.35;42.83
68179;BME280;54998;42.656;23.382;2022-07-06T08:26:50;94917.63;;;29.24;39.27
68179;BME280;54998;42.656;23.382;2022-07-06T08:29:16;94922.25;;;28.15;41.64
68179;BME280;54998;42.656;23.382;2022-07-06T08:31:41;94930.88;;;26.26;44.91
68179;BME280;54998;42.656;23.382;2022-07-06T08:34:07;94916.22;;;28.47;41.02
68179;BME280;54998;42.656;23.382;2022-07-06T08:36:32;94924.44;;;30.77;36.42
68179;BME280;54998;42.656;23.382;2022-07-06T08:38:58;94924.94;;;28.80;39.27
68179;BME280;54998;42.656;23.382;2022-07-06T08:41:25;94919.31;;;30.09;37.96
68179;BME280;54998;42.656;23.382;2022-07-06T08:43:52;94902.19;;;28.41;40.68
68179;BME280;54998;42.656;23.382;2022-07-06T08:46:19;94903.81;;;28.80;40.35
68179;BME280;54998;42.656;23.382;2022-07-06T08:48:45;94909.63;;;30.61;35.78
68179;BME280;54998;42.656;23.382;2022-07-06T08:51:13;94915.50;;;29.69;37.62
68179;BME280;54998;42.656;23.382;2022-07-06T08:53:40;94913.78;;;29.47;38.65
68179;BME280;54998;42.656;23.382;2022-07-06T08:56:05;94918.38;;;30.97;35.83
68179;BME280;54998;42.656;23.382;2022-07-06T08:58:31;94922.31;;;30.43;36.18
68179;BME280;54998;42.656;23.382;2022-07-06T09:00:58;94928.97;;;30.87;35.82
68179;BME280;54998;42.656;23.382;2022-07-06T09:03:25;94925.00;;;30.54;37.08
68179;BME280;54998;42.656;23.382;2022-07-06T09:05:51;94918.63;;;31.06;34.88
68179;BME280;54998;42.656;23.382;2022-07-06T09:08:18;94913.28;;;31.16;35.20
68179;BME280;54998;42.656;23.382;2022-07-06T09:10:44;94908.50;;;30.26;37.66
68179;BME280;54998;42.656;23.382;2022-07-06T09:13:09;94914.75;;;29.31;38.21
68179;BME280;54998;42.656;23.382;2022-07-06T09:15:35;94912.78;;;30.53;37.77
68179;BME280;54998;42.656;23.382;2022-07-06T09:18:04;94912.16;;;30.04;38.23
68179;BME280;54998;42.656;23.382;2022-07-06T09:20:30;94906.72;;;28.46;41.30
68179;BME280;54998;42.656;23.382;2022-07-06T09:23:01;94906.38;;;26.09;46.47
68179;BME280;54998;42.656;23.382;2022-07-06T09:25:27;94906.88;;;25.53;47.62
68179;BME280;54998;42.656;23.382;2022-07-06T09:27:53;94914.22;;;25.80;46.13
68179;BME280;54998;42.656;23.382;2022-07-06T09:30:20;94921.25;;;25.62;47.22
68179;BME280;54998;42.656;23.382;2022-07-06T09:32:48;94921.97;;;25.98;46.84
68179;BME280;54998;42.656;23.382;2022-07-06T09:35:25;94918.78;;;25.96;46.98
68179;BME280;54998;42.656;23.382;2022-07-06T09:38:01;94916.91;;;25.56;48.48
68179;BME280;54998;42.656;23.382;2022-07-06T09:40:27;94919.44;;;26.03;47.21
68179;BME280;54998;42.656;23.382;2022-07-06T09:43:10;94912.09;;;25.65;47.90
68179;BME280;54998;42.656;23.382;2022-07-06T09:45:36;94917.47;;;26.56;45.58
68179;BME280;54998;42.656;23.382;2022-07-06T09:48:10;94906.50;;;26.76;44.63
68179;BME280;54998;42.656;23.382;2022-07-06T09:50:40;94906.69;;;25.83;46.75
68179;BME280;54998;42.656;23.382;2022-07-06T09:53:06;94897.31;;;24.65;49.66
68179;BME280;54998;42.656;23.382;2022-07-06T09:55:32;94903.47;;;24.28;51.04
68179;BME280;54998;42.656;23.382;2022-07-06T09:57:57;94895.34;;;24.48;51.04
68179;BME280;54998;42.656;23.382;2022-07-06T10:00:23;94897.16;;;25.54;49.03
68179;BME280;54998;42.656;23.382;2022-07-06T10:02:49;94892.47;;;25.68;47.75
68179;BME280;54998;42.656;23.382;2022-07-06T10:05:17;94902.50;;;25.59;48.58
68179;BME280;54998;42.656;23.382;2022-07-06T10:07:45;94895.28;;;25.26;48.78
68179;BME280;54998;42.656;23.382;2022-07-06T10:10:14;94891.72;;;24.85;50.23
68179;BME280;54998;42.656;23.382;2022-07-06T10:12:42;94896.31;;;25.77;47.65
68179;BME280;54998;42.656;23.382;2022-07-06T10:15:10;94891.69;;;27.09;44.56
68179;BME280;54998;42.656;23.382;2022-07-06T10:17:38;94897.66;;;28.64;41.53
68179;BME280;54998;42.656;23.382;2022-07-06T10:20:05;94895.41;;;29.73;39.77
68179;BME280;54998;42.656;23.382;2022-07-06T10:22:31;94881.66;;;29.18;40.34
68179;BME280;54998;42.656;23.382;2022-07-06T10:24:57;94881.78;;;29.44;38.99
68179;BME280;54998;42.656;23.382;2022-07-06T10:27:24;94886.25;;;28.96;41.04
68179;BME280;54998;42.656;23.382;2022-07-06T10:29:50;94876.69;;;26.42;44.37
68179;BME280;54998;42.656;23.382;2022-07-06T10:32:18;94873.13;;;27.21;43.14
68179;BME280;54998;42.656;23.382;2022-07-06T10:34:45;94871.50;;;27.37;42.69
68179;BME280;54998;42.656;23.382;2022-07-06T10:37:23;94877.22;;;28.86;40.11
68179;BME280;54998;42.656;23.382;2022-07-06T10:39:49;94877.69;;;29.21;39.17
68179;BME280;54998;42.656;23.382;2022-07-06T10:42:41;94870.41;;;28.26;41.11
68179;BME280;54998;42.656;23.382;2022-07-06T10:45:08;94866.66;;;27.95;41.85
68179;BME280;54998;42.656;23.382;2022-07-06T10:47:34;94870.69;;;28.99;39.87
68179;BME280;54998;42.656;23.382;2022-07-06T10:50:00;94874.19;;;29.10;39.53
68179;BME280;54998;42.656;23.382;2022-07-06T10:53:21;94866.13;;;28.84;39.79
68179;BME280;54998;42.656;23.382;2022-07-06T10:55:39;94874.47;;;31.61;35.44
68179;BME280;54998;42.656;23.382;2022-07-06T10:58:05;94864.06;;;30.64;36.67
68179;BME280;54998;42.656;23.382;2022-07-06T11:00:53;94871.41;;;30.05;36.97
68179;BME280;54998;42.656;23.382;2022-07-06T11:03:40;94862.84;;;28.40;39.91
68179;BME280;54998;42.656;23.382;2022-07-06T11:08:57;94870.06;;;29.29;39.72
68179;BME280;54998;42.656;23.382;2022-07-06T11:11:38;94875.31;;;28.17;40.91
68179;BME280;54998;42.656;23.382;2022-07-06T11:16:39;94858.16;;;28.79;39.69
68179;BME280;54998;42.656;23.382;2022-07-06T11:21:47;94860.88;;;30.46;36.16
68179;BME280;54998;42.656;23.382;2022-07-06T11:24:22;94857.06;;;29.13;38.78
68179;BME280;54998;42.656;23.382;2022-07-06T11:26:49;94856.78;;;29.77;37.24
68179;BME280;54998;42.656;23.382;2022-07-06T11:29:16;94859.56;;;30.80;35.67
68179;BME280;54998;42.656;23.382;2022-07-06T11:31:45;94833.13;;;31.60;33.64
68179;BME280;54998;42.656;23.382;2022-07-06T11:34:13;94846.75;;;31.23;33.56
68179;BME280;54998;42.656;23.382;2022-07-06T11:36:42;94827.75;;;31.70;33.31
68179;BME280;54998;42.656;23.382;2022-07-06T11:39:07;94837.53;;;30.02;36.03
68179;BME280;54998;42.656;23.382;2022-07-06T11:41:34;94839.38;;;29.92;36.75
68179;BME280;54998;42.656;23.382;2022-07-06T11:44:00;94833.16;;;29.50;38.22
68179;BME280;54998;42.656;23.382;2022-07-06T11:46:35;94829.28;;;28.03;40.60
68179;BME280;54998;42.656;23.382;2022-07-06T11:49:08;94829.28;;;28.35;40.04
68179;BME280;54998;42.656;23.382;2022-07-06T11:51:36;94822.34;;;27.48;41.09
68179;BME280;54998;42.656;23.382;2022-07-06T11:54:12;94827.84;;;26.46;43.13
68179;BME280;54998;42.656;23.382;2022-07-06T11:56:54;94825.34;;;26.06;43.79
68179;BME280;54998;42.656;23.382;2022-07-06T11:59:25;94827.72;;;25.90;44.95
68179;BME280;54998;42.656;23.382;2022-07-06T12:02:17;94823.75;;;26.21;43.75
68179;BME280;54998;42.656;23.382;2022-07-06T12:04:44;94814.72;;;25.72;44.96
68179;BME280;54998;42.656;23.382;2022-07-06T12:07:15;94819.16;;;25.83;43.74
68179;BME280;54998;42.656;23.382;2022-07-06T12:09:46;94819.09;;;25.37;43.62
68179;BME280;54998;42.656;23.382;2022-07-06T12:12:12;94810.66;;;25.35;44.97
68179;BME280;54998;42.656;23.382;2022-07-06T12:14:40;94816.25;;;25.68;44.01
68179;BME280;54998;42.656;23.382;2022-07-06T12:17:11;94817.84;;;25.97;44.47
68179;BME280;54998;42.656;23.382;2022-07-06T12:19:37;94820.38;;;25.92;44.70
68179;BME280;54998;42.656;23.382;2022-07-06T12:22:04;94826.91;;;25.90;44.25
68179;BME280;54998;42.656;23.382;2022-07-06T12:24:31;94817.88;;;25.16;45.83
68179;BME280;54998;42.656;23.382;2022-07-06T12:26:58;94800.66;;;25.49;44.85
68179;BME280;54998;42.656;23.382;2022-07-06T12:29:24;94816.09;;;25.46;45.43
68179;BME280;54998;42.656;23.382;2022-07-06T12:31:55;94800.63;;;25.09;46.30
68179;BME280;54998;42.656;23.382;2022-07-06T12:34:24;94812.88;;;25.03;44.57
68179;BME280;54998;42.656;23.382;2022-07-06T12:36:51;94802.63;;;24.90;45.03
68179;BME280;54998;42.656;23.382;2022-07-06T12:39:22;94820.13;;;25.13;45.51
68179;BME280;54998;42.656;23.382;2022-07-06T12:41:53;94806.97;;;24.72;46.02
68179;BME280;54998;42.656;23.382;2022-07-06T12:44:24;94816.00;;;24.53;47.00
68179;BME280;54998;42.656;23.382;2022-07-06T12:47:00;94805.38;;;24.83;45.62
68179;BME280;54998;42.656;23.382;2022-07-06T12:49:26;94788.94;;;24.64;46.50
68179;BME280;54998;42.656;23.382;2022-07-06T12:54:17;94783.94;;;24.63;46.75
68179;BME280;54998;42.656;23.382;2022-07-06T12:56:58;94791.22;;;24.72;46.56
68179;BME280;54998;42.656;23.382;2022-07-06T12:59:24;94793.50;;;24.57;47.31
68179;BME280;54998;42.656;23.382;2022-07-06T13:01:52;94790.63;;;24.82;47.08
68179;BME280;54998;42.656;23.382;2022-07-06T13:04:21;94794.34;;;25.21;46.57
68179;BME280;54998;42.656;23.382;2022-07-06T13:06:46;94792.75;;;25.20;46.73
68179;BME280;54998;42.656;23.382;2022-07-06T13:09:12;94792.50;;;25.34;45.11
68179;BME280;54998;42.656;23.382;2022-07-06T13:11:40;94780.81;;;24.89;43.18
68179;BME280;54998;42.656;23.382;2022-07-06T13:14:05;94781.28;;;24.74;44.89
68179;BME280;54998;42.656;23.382;2022-07-06T13:16:31;94778.22;;;24.77;45.26
68179;BME280;54998;42.656;23.382;2022-07-06T13:19:00;94782.50;;;24.95;45.52
68179;BME280;54998;42.656;23.382;2022-07-06T13:21:25;94779.31;;;24.93;45.52
68179;BME280;54998;42.656;23.382;2022-07-06T13:23:51;94780.88;;;25.06;44.14
68179;BME280;54998;42.656;23.382;2022-07-06T13:26:16;94781.09;;;25.16;43.37
68179;BME280;54998;42.656;23.382;2022-07-06T13:28:42;94767.03;;;24.82;43.43
68179;BME280;54998;42.656;23.382;2022-07-06T13:31:08;94783.41;;;25.25;42.80
68179;BME280;54998;42.656;23.382;2022-07-06T13:33:33;94779.63;;;25.20;43.25
68179;BME280;54998;42.656;23.382;2022-07-06T13:35:58;94779.88;;;25.07;43.51
68179;BME280;54998;42.656;23.382;2022-07-06T13:38:26;94783.16;;;25.14;44.53
68179;BME280;54998;42.656;23.382;2022-07-06T13:40:51;94785.31;;;25.17;43.23
68179;BME280;54998;42.656;23.382;2022-07-06T13:43:16;94780.53;;;25.14;43.51